sensor_id;sensor_type;location;lat;lon;timestamp;pressure;altitude;pressure_sealevel;temperature;humidity
34742;BME280;20968;42.696;23.360;2023-07-08T00:00:18;95502.13;;;20.92;72.33
34742;BME280;20968;42.696;23.360;2023-07-08T00:02:44;95501.03;;;20.82;72.79
34742;BME280;20968;42.696;23.360;2023-07-08T00:05:12;95492.50;;;20.74;73.07
34742;BME280;20968;42.696;23.360;2023-07-08T00:07:39;95496.31;;;20.77;72.89
34742;BME280;20968;42.696;23.360;2023-07-08T00:10:20;95489.84;;;20.82;72.50
34742;BME280;20968;42.696;23.360;2023-07-08T00:12:48;95487.91;;;20.77;72.76
34742;BME280;20968;42.696;23.360;2023-07-08T00:15:15;95477.88;;;20.68;73.06
34742;BME280;20968;42.696;23.360;2023-07-08T00:17:42;95471.38;;;20.60;73.31
34742;BME280;20968;42.696;23.360;2023-07-08T00:20:13;95478.59;;;20.56;73.35
34742;BME280;20968;42.696;23.360;2023-07-08T00:22:40;95484.81;;;20.49;73.88
34742;BME280;20968;42.696;23.360;2023-07-08T00:25:09;95478.56;;;20.43;74.09
34742;BME280;20968;42.696;23.360;2023-07-08T00:27:34;95470.38;;;20.45;73.62
34742;BME280;20968;42.696;23.360;2023-07-08T00:30:00;95470.38;;;20.45;74.15
34742;BME280;20968;42.696;23.360;2023-07-08T00:32:28;95463.50;;;20.46;73.87
34742;BME280;20968;42.696;23.360;2023-07-08T00:34:53;95459.66;;;20.49;73.76
34742;BME280;20968;42.696;23.360;2023-07-08T00:37:22;95463.41;;;20.51;73.57
34742;BME280;20968;42.696;23.360;2023-07-08T00:39:47;95464.03;;;20.44;73.69
34742;BME280;20968;42.696;23.360;2023-07-08T00:42:18;95475.56;;;20.54;73.81
34742;BME280;20968;42.696;23.360;2023-07-08T00:44:44;95466.53;;;20.61;73.19
34742;BME280;20968;42.696;23.360;2023-07-08T00:47:11;95465.03;;;20.60;73.32
34742;BME280;20968;42.696;23.360;2023-07-08T00:49:46;95458.78;;;20.54;73.04
34742;BME280;20968;42.696;23.360;2023-07-08T00:54:49;95458.34;;;20.63;73.23
34742;BME280;20968;42.696;23.360;2023-07-08T00:57:15;95459.56;;;20.67;72.83
34742;BME280;20968;42.696;23.360;2023-07-08T00:59:49;95451.66;;;20.66;72.70
34742;BME280;20968;42.696;23.360;2023-07-08T01:02:21;95463.72;;;20.61;72.61
34742;BME280;20968;42.696;23.360;2023-07-08T01:05:00;95447.34;;;20.52;72.79
34742;BME280;20968;42.696;23.360;2023-07-08T01:07:28;95439.59;;;20.45;73.30
34742;BME280;20968;42.696;23.360;2023-07-08T01:10:01;95439.38;;;20.43;73.41
34742;BME280;20968;42.696;23.360;2023-07-08T01:12:32;95440.00;;;20.36;73.50
34742;BME280;20968;42.696;23.360;2023-07-08T01:15:02;95433.13;;;20.37;73.77
34742;BME280;20968;42.696;23.360;2023-07-08T01:17:28;95437.22;;;20.36;73.54
34742;BME280;20968;42.696;23.360;2023-07-08T01:20:00;95436.25;;;20.33;73.59
34742;BME280;20968;42.696;23.360;2023-07-08T01:22:35;95431.50;;;20.29;73.72
34742;BME280;20968;42.696;23.360;2023-07-08T01:25:02;95440.13;;;20.31;73.76
34742;BME280;20968;42.696;23.360;2023-07-08T01:27:32;95437.84;;;20.29;73.58
34742;BME280;20968;42.696;23.360;2023-07-08T01:30:00;95436.03;;;20.32;73.75
34742;BME280;20968;42.696;23.360;2023-07-08T01:32:27;95433.66;;;20.23;73.79
34742;BME280;20968;42.696;23.360;2023-07-08T01:34:56;95427.28;;;20.22;73.60
34742;BME280;20968;42.696;23.360;2023-07-08T01:37:36;95428.81;;;20.23;73.76
34742;BME280;20968;42.696;23.360;2023-07-08T01:42:46;95431.34;;;20.08;74.21
34742;BME280;20968;42.696;23.360;2023-07-08T01:45:14;95435.34;;;20.13;73.91
34742;BME280;20968;42.696;23.360;2023-07-08T01:47:41;95423.19;;;20.10;74.39
34742;BME280;20968;42.696;23.360;2023-07-08T01:50:10;95423.41;;;20.12;73.73
34742;BME280;20968;42.696;23.360;2023-07-08T01:52:36;95435.03;;;20.16;74.05
34742;BME280;20968;42.696;23.360;2023-07-08T01:55:03;95425.78;;;20.21;73.32
34742;BME280;20968;42.696;23.360;2023-07-08T01:57:29;95429.38;;;20.34;73.22
34742;BME280;20968;42.696;23.360;2023-07-08T01:59:54;95407.31;;;20.31;72.99
34742;BME280;20968;42.696;23.360;2023-07-08T02:02:19;95418.72;;;20.33;72.88
34742;BME280;20968;42.696;23.360;2023-07-08T02:04:45;95416.97;;;20.30;73.18
34742;BME280;20968;42.696;23.360;2023-07-08T02:07:10;95419.69;;;20.35;72.83
34742;BME280;20968;42.696;23.360;2023-07-08T02:09:35;95432.06;;;20.40;72.73
34742;BME280;20968;42.696;23.360;2023-07-08T02:12:01;95428.00;;;20.41;72.71
34742;BME280;20968;42.696;23.360;2023-07-08T02:14:26;95439.59;;;20.32;72.73
34742;BME280;20968;42.696;23.360;2023-07-08T02:16:52;95423.97;;;20.24;73.02
34742;BME280;20968;42.696;23.360;2023-07-08T02:19:19;95442.13;;;20.17;73.24
34742;BME280;20968;42.696;23.360;2023-07-08T02:21:44;95442.78;;;20.10;73.65
34742;BME280;20968;42.696;23.360;2023-07-08T02:24:10;95444.06;;;20.09;73.60
34742;BME280;20968;42.696;23.360;2023-07-08T02:26:35;95442.78;;;20.10;73.75
34742;BME280;20968;42.696;23.360;2023-07-08T02:29:01;95443.16;;;20.01;73.80
34742;BME280;20968;42.696;23.360;2023-07-08T02:31:27;95458.66;;;20.02;73.90
34742;BME280;20968;42.696;23.360;2023-07-08T02:33:53;95468.03;;;20.05;73.62
34742;BME280;20968;42.696;23.360;2023-07-08T02:36:19;95456.41;;;20.01;73.81
34742;BME280;20968;42.696;23.360;2023-07-08T02:38:45;95461.78;;;19.99;73.91
34742;BME280;20968;42.696;23.360;2023-07-08T02:41:10;95460.81;;;19.96;73.85
34742;BME280;20968;42.696;23.360;2023-07-08T02:43:37;95460.50;;;20.00;74.32
34742;BME280;20968;42.696;23.360;2023-07-08T02:46:03;95465.00;;;20.03;73.68
34742;BME280;20968;42.696;23.360;2023-07-08T02:48:28;95467.47;;;20.06;73.63
34742;BME280;20968;42.696;23.360;2023-07-08T02:51:01;95471.47;;;20.11;73.82
34742;BME280;20968;42.696;23.360;2023-07-08T02:53:27;95480.41;;;20.09;73.59
34742;BME280;20968;42.696;23.360;2023-07-08T02:55:53;95481.13;;;19.97;73.90
34742;BME280;20968;42.696;23.360;2023-07-08T02:58:18;95483.91;;;19.97;74.04
34742;BME280;20968;42.696;23.360;2023-07-08T03:00:44;95475.53;;;19.97;74.10
34742;BME280;20968;42.696;23.360;2023-07-08T03:03:09;95466.22;;;19.89;74.38
34742;BME280;20968;42.696;23.360;2023-07-08T03:05:35;95472.97;;;19.80;74.49
34742;BME280;20968;42.696;23.360;2023-07-08T03:08:01;95465.00;;;19.84;74.30
34742;BME280;20968;42.696;23.360;2023-07-08T03:10:27;95461.16;;;19.87;74.19
34742;BME280;20968;42.696;23.360;2023-07-08T03:12:52;95473.47;;;19.97;74.48
34742;BME280;20968;42.696;23.360;2023-07-08T03:15:18;95460.81;;;19.96;73.96
34742;BME280;20968;42.696;23.360;2023-07-08T03:17:43;95471.88;;;20.02;73.91
34742;BME280;20968;42.696;23.360;2023-07-08T03:20:09;95469.97;;;19.91;74.04
34742;BME280;20968;42.696;23.360;2023-07-08T03:22:36;95475.75;;;19.99;74.07
34742;BME280;20968;42.696;23.360;2023-07-08T03:25:02;95475.28;;;19.95;74.17
34742;BME280;20968;42.696;23.360;2023-07-08T03:27:28;95467.72;;;19.90;73.93
34742;BME280;20968;42.696;23.360;2023-07-08T03:29:53;95465.91;;;19.92;73.89
34742;BME280;20968;42.696;23.360;2023-07-08T03:32:18;95472.28;;;19.93;74.15
34742;BME280;20968;42.696;23.360;2023-07-08T03:34:44;95466.69;;;19.93;73.92
34742;BME280;20968;42.696;23.360;2023-07-08T03:37:09;95464.13;;;19.95;74.41
34742;BME280;20968;42.696;23.360;2023-07-08T03:39:35;95468.47;;;19.90;74.13
34742;BME280;20968;42.696;23.360;2023-07-08T03:42:01;95467.00;;;19.89;74.41
34742;BME280;20968;42.696;23.360;2023-07-08T03:44:27;95463.97;;;19.87;74.34
34742;BME280;20968;42.696;23.360;2023-07-08T03:46:52;95463.50;;;19.83;74.54
34742;BME280;20968;42.696;23.360;2023-07-08T03:49:19;95457.41;;;19.85;74.21
34742;BME280;20968;42.696;23.360;2023-07-08T03:51:50;95450.81;;;19.82;74.39
34742;BME280;20968;42.696;23.360;2023-07-08T03:54:18;95461.09;;;19.93;74.45
34742;BME280;20968;42.696;23.360;2023-07-08T03:56:43;95460.38;;;20.05;74.20
34742;BME280;20968;42.696;23.360;2023-07-08T03:59:09;95455.25;;;20.09;73.59
34742;BME280;20968;42.696;23.360;2023-07-08T04:01:35;95466.34;;;20.15;73.53
34742;BME280;20968;42.696;23.360;2023-07-08T04:04:01;95463.16;;;20.24;73.11
34742;BME280;20968;42.696;23.360;2023-07-08T04:06:27;95464.53;;;20.30;72.94
34742;BME280;20968;42.696;23.360;2023-07-08T04:08:54;95458.22;;;20.30;72.80
34742;BME280;20968;42.696;23.360;2023-07-08T04:11:21;95466.59;;;20.30;72.57
34742;BME280;20968;42.696;23.360;2023-07-08T04:13:47;95477.38;;;20.38;72.64
34742;BME280;20968;42.696;23.360;2023-07-08T04:16:20;95485.03;;;20.51;72.41
34742;BME280;20968;42.696;23.360;2023-07-08T04:18:47;95484.94;;;20.56;71.93
34742;BME280;20968;42.696;23.360;2023-07-08T04:21:12;95473.63;;;20.49;72.04
34742;BME280;20968;42.696;23.360;2023-07-08T04:23:38;95480.84;;;20.57;71.73
34742;BME280;20968;42.696;23.360;2023-07-08T04:26:03;95481.91;;;20.54;71.77
34742;BME280;20968;42.696;23.360;2023-07-08T04:28:28;95481.03;;;20.46;72.11
34742;BME280;20968;42.696;23.360;2023-07-08T04:30:54;95479.88;;;20.55;71.85
34742;BME280;20968;42.696;23.360;2023-07-08T04:33:19;95481.59;;;20.58;71.75
34742;BME280;20968;42.696;23.360;2023-07-08T04:35:45;95481.59;;;20.58;71.65
34742;BME280;20968;42.696;23.360;2023-07-08T04:38:17;95492.50;;;20.61;71.68
34742;BME280;20968;42.696;23.360;2023-07-08T04:40:43;95487.41;;;20.60;71.61
34742;BME280;20968;42.696;23.360;2023-07-08T04:43:09;95488.59;;;20.51;71.53
34742;BME280;20968;42.696;23.360;2023-07-08T04:45:42;95485.91;;;20.59;71.98
34742;BME280;20968;42.696;23.360;2023-07-08T04:48:13;95477.41;;;20.51;71.34
34742;BME280;20968;42.696;23.360;2023-07-08T04:50:40;95478.47;;;20.48;71.84
34742;BME280;20968;42.696;23.360;2023-07-08T04:53:06;95489.25;;;20.57;71.87
34742;BME280;20968;42.696;23.360;2023-07-08T04:55:33;95495.94;;;20.67;71.94
34742;BME280;20968;42.696;23.360;2023-07-08T04:57:58;95488.94;;;20.61;71.37
34742;BME280;20968;42.696;23.360;2023-07-08T05:00:23;95489.69;;;20.61;71.08
34742;BME280;20968;42.696;23.360;2023-07-08T05:02:49;95486.44;;;20.57;70.97
34742;BME280;20968;42.696;23.360;2023-07-08T05:05:14;95493.00;;;20.60;71.32
34742;BME280;20968;42.696;23.360;2023-07-08T05:07:40;95492.38;;;20.54;71.71
34742;BME280;20968;42.696;23.360;2023-07-08T05:10:05;95498.28;;;20.50;71.81
34742;BME280;20968;42.696;23.360;2023-07-08T05:12:31;95498.59;;;20.47;72.66
34742;BME280;20968;42.696;23.360;2023-07-08T05:14:56;95498.69;;;20.54;72.05
34742;BME280;20968;42.696;23.360;2023-07-08T05:17:22;95494.75;;;20.63;72.23
34742;BME280;20968;42.696;23.360;2023-07-08T05:19:47;95506.28;;;20.72;71.56
34742;BME280;20968;42.696;23.360;2023-07-08T05:22:16;95510.81;;;20.75;71.10
34742;BME280;20968;42.696;23.360;2023-07-08T05:24:43;95509.66;;;20.84;70.05
34742;BME280;20968;42.696;23.360;2023-07-08T05:27:08;95513.97;;;20.98;70.38
34742;BME280;20968;42.696;23.360;2023-07-08T05:29:34;95522.19;;;21.09;70.36
34742;BME280;20968;42.696;23.360;2023-07-08T05:31:59;95519.06;;;21.12;70.07
34742;BME280;20968;42.696;23.360;2023-07-08T05:34:25;95518.72;;;21.15;69.29
34742;BME280;20968;42.696;23.360;2023-07-08T05:36:50;95511.41;;;21.25;69.44
34742;BME280;20968;42.696;23.360;2023-07-08T05:39:15;95518.28;;;21.24;68.53
34742;BME280;20968;42.696;23.360;2023-07-08T05:41:41;95526.59;;;21.17;68.51
34742;BME280;20968;42.696;23.360;2023-07-08T05:44:06;95514.63;;;21.16;68.87
34742;BME280;20968;42.696;23.360;2023-07-08T05:46:31;95515.94;;;21.15;68.88
34742;BME280;20968;42.696;23.360;2023-07-08T05:51:23;95535.53;;;21.28;68.24
34742;BME280;20968;42.696;23.360;2023-07-08T05:53:49;95526.47;;;21.35;68.02
34742;BME280;20968;42.696;23.360;2023-07-08T05:56:14;95539.72;;;21.48;66.75
34742;BME280;20968;42.696;23.360;2023-07-08T05:58:40;95538.13;;;21.39;67.19
34742;BME280;20968;42.696;23.360;2023-07-08T06:01:06;95542.09;;;21.31;67.37
34742;BME280;20968;42.696;23.360;2023-07-08T06:03:32;95538.78;;;21.32;67.75
34742;BME280;20968;42.696;23.360;2023-07-08T06:05:57;95547.38;;;21.34;67.53
34742;BME280;20968;42.696;23.360;2023-07-08T06:08:23;95535.09;;;21.37;67.93
34742;BME280;20968;42.696;23.360;2023-07-08T06:10:49;95538.78;;;21.32;67.63
34742;BME280;20968;42.696;23.360;2023-07-08T06:13:15;95541.25;;;21.36;67.32
34742;BME280;20968;42.696;23.360;2023-07-08T06:15:41;95544.47;;;21.40;66.42
34742;BME280;20968;42.696;23.360;2023-07-08T06:18:07;95545.66;;;21.44;66.70
34742;BME280;20968;42.696;23.360;2023-07-08T06:20:33;95550.72;;;21.46;66.68
34742;BME280;20968;42.696;23.360;2023-07-08T06:22:59;95556.13;;;21.57;66.45
34742;BME280;20968;42.696;23.360;2023-07-08T06:25:25;95558.19;;;21.56;66.20
34742;BME280;20968;42.696;23.360;2023-07-08T06:27:50;95550.59;;;21.51;66.01
34742;BME280;20968;42.696;23.360;2023-07-08T06:30:15;95552.88;;;21.66;66.37
34742;BME280;20968;42.696;23.360;2023-07-08T06:32:41;95557.50;;;21.76;65.01
34742;BME280;20968;42.696;23.360;2023-07-08T06:35:07;95555.97;;;21.88;65.20
34742;BME280;20968;42.696;23.360;2023-07-08T06:37:33;95546.22;;;22.02;64.15
34742;BME280;20968;42.696;23.360;2023-07-08T06:39:58;95552.88;;;22.12;63.27
34742;BME280;20968;42.696;23.360;2023-07-08T06:42:23;95550.53;;;22.03;63.45
34742;BME280;20968;42.696;23.360;2023-07-08T06:44:49;95555.56;;;22.17;62.58
34742;BME280;20968;42.696;23.360;2023-07-08T06:47:20;95546.03;;;22.33;62.49
34742;BME280;20968;42.696;23.360;2023-07-08T06:49:47;95547.19;;;22.38;61.84
34742;BME280;20968;42.696;23.360;2023-07-08T06:52:13;95541.44;;;22.43;62.12
34742;BME280;20968;42.696;23.360;2023-07-08T06:54:38;95544.41;;;22.58;61.66
34742;BME280;20968;42.696;23.360;2023-07-08T06:57:04;95544.38;;;22.78;61.53
34742;BME280;20968;42.696;23.360;2023-07-08T06:59:29;95557.19;;;22.87;60.94
34742;BME280;20968;42.696;23.360;2023-07-08T07:01:55;95547.94;;;22.79;59.85
34742;BME280;20968;42.696;23.360;2023-07-08T07:04:20;95556.25;;;22.84;60.38
34742;BME280;20968;42.696;23.360;2023-07-08T07:06:46;95557.94;;;22.67;60.19
34742;BME280;20968;42.696;23.360;2023-07-08T07:09:11;95542.59;;;22.48;59.83
34742;BME280;20968;42.696;23.360;2023-07-08T07:11:36;95555.53;;;22.30;60.90
34742;BME280;20968;42.696;23.360;2023-07-08T07:14:02;95548.63;;;22.31;61.11
34742;BME280;20968;42.696;23.360;2023-07-08T07:16:28;95563.75;;;22.49;60.65
34742;BME280;20968;42.696;23.360;2023-07-08T07:18:53;95565.75;;;22.61;60.50
34742;BME280;20968;42.696;23.360;2023-07-08T07:21:19;95562.72;;;22.59;60.42
34742;BME280;20968;42.696;23.360;2023-07-08T07:23:44;95556.38;;;22.59;60.67
34742;BME280;20968;42.696;23.360;2023-07-08T07:26:10;95559.25;;;22.46;60.39
34742;BME280;20968;42.696;23.360;2023-07-08T07:28:35;95571.28;;;22.33;60.98
34742;BME280;20968;42.696;23.360;2023-07-08T07:31:00;95579.25;;;22.42;61.16
34742;BME280;20968;42.696;23.360;2023-07-08T07:33:26;95582.13;;;22.50;61.42
34742;BME280;20968;42.696;23.360;2023-07-08T07:35:52;95590.19;;;22.53;60.46
34742;BME280;20968;42.696;23.360;2023-07-08T07:38:18;95581.09;;;22.60;60.82
34742;BME280;20968;42.696;23.360;2023-07-08T07:40:44;95591.03;;;22.81;60.65
34742;BME280;20968;42.696;23.360;2023-07-08T07:43:10;95596.75;;;22.89;59.31
34742;BME280;20968;42.696;23.360;2023-07-08T07:45:35;95576.16;;;22.94;60.14
34742;BME280;20968;42.696;23.360;2023-07-08T07:48:01;95578.84;;;22.99;59.65
34742;BME280;20968;42.696;23.360;2023-07-08T07:50:27;95577.50;;;23.21;59.83
34742;BME280;20968;42.696;23.360;2023-07-08T07:52:52;95592.13;;;23.19;59.34
34742;BME280;20968;42.696;23.360;2023-07-08T07:55:18;95594.84;;;23.32;58.63
34742;BME280;20968;42.696;23.360;2023-07-08T07:57:44;95594.91;;;23.40;58.70
34742;BME280;20968;42.696;23.360;2023-07-08T08:00:11;95589.66;;;23.44;58.61
34742;BME280;20968;42.696;23.360;2023-07-08T08:02:39;95578.88;;;23.55;58.21
34742;BME280;20968;42.696;23.360;2023-07-08T08:05:05;95582.31;;;23.68;57.89
34742;BME280;20968;42.696;23.360;2023-07-08T08:07:30;95580.81;;;23.67;57.89
34742;BME280;20968;42.696;23.360;2023-07-08T08:09:56;95583.47;;;23.73;57.53
34742;BME280;20968;42.696;23.360;2023-07-08T08:12:21;95587.22;;;23.68;57.13
34742;BME280;20968;42.696;23.360;2023-07-08T08:14:50;95581.97;;;23.72;57.67
34742;BME280;20968;42.696;23.360;2023-07-08T08:17:15;95578.25;;;23.77;57.69
34742;BME280;20968;42.696;23.360;2023-07-08T08:19:40;95574.72;;;23.76;57.43
34742;BME280;20968;42.696;23.360;2023-07-08T08:22:06;95582.81;;;23.52;56.92
34742;BME280;20968;42.696;23.360;2023-07-08T08:24:33;95576.66;;;23.61;57.33
34742;BME280;20968;42.696;23.360;2023-07-08T08:26:58;95587.50;;;23.85;57.98
34742;BME280;20968;42.696;23.360;2023-07-08T08:29:23;95573.03;;;23.81;56.52
34742;BME280;20968;42.696;23.360;2023-07-08T08:31:49;95590.56;;;23.94;55.63
34742;BME280;20968;42.696;23.360;2023-07-08T08:34:15;95574.63;;;23.97;56.56
34742;BME280;20968;42.696;23.360;2023-07-08T08:36:41;95579.88;;;24.00;56.16
34742;BME280;20968;42.696;23.360;2023-07-08T08:39:08;95589.47;;;24.05;55.65
34742;BME280;20968;42.696;23.360;2023-07-08T08:41:36;95574.88;;;24.14;56.03
34742;BME280;20968;42.696;23.360;2023-07-08T08:44:03;95578.06;;;24.18;56.02
34742;BME280;20968;42.696;23.360;2023-07-08T08:46:45;95578.13;;;24.33;55.68
34742;BME280;20968;42.696;23.360;2023-07-08T08:51:51;95588.47;;;24.37;55.50
34742;BME280;20968;42.696;23.360;2023-07-08T08:54:17;95580.41;;;24.41;54.60
34742;BME280;20968;42.696;23.360;2023-07-08T09:05:02;95588.59;;;25.05;53.69
34742;BME280;20968;42.696;23.360;2023-07-08T09:07:30;95582.22;;;25.04;52.43
34742;BME280;20968;42.696;23.360;2023-07-08T09:10:11;95583.13;;;24.99;52.57
34742;BME280;20968;42.696;23.360;2023-07-08T09:12:40;95578.63;;;24.96;52.70
34742;BME280;20968;42.696;23.360;2023-07-08T09:15:14;95570.53;;;25.00;52.94
34742;BME280;20968;42.696;23.360;2023-07-08T09:17:40;95559.84;;;24.99;53.27
34742;BME280;20968;42.696;23.360;2023-07-08T09:20:26;95557.56;;;25.05;53.39
34742;BME280;20968;42.696;23.360;2023-07-08T09:25:36;95561.72;;;25.04;53.29
34742;BME280;20968;42.696;23.360;2023-07-08T09:28:02;95562.84;;;25.01;51.80
34742;BME280;20968;42.696;23.360;2023-07-08T09:30:28;95565.47;;;24.99;52.48
34742;BME280;20968;42.696;23.360;2023-07-08T09:32:57;95564.75;;;25.20;52.96
34742;BME280;20968;42.696;23.360;2023-07-08T09:35:29;95554.22;;;25.36;52.68
34742;BME280;20968;42.696;23.360;2023-07-08T09:38:07;95554.00;;;25.41;51.51
34742;BME280;20968;42.696;23.360;2023-07-08T09:40:33;95552.47;;;25.48;51.53
34742;BME280;20968;42.696;23.360;2023-07-08T09:43:11;95550.78;;;25.45;50.91
34742;BME280;20968;42.696;23.360;2023-07-08T09:45:44;95552.47;;;25.48;50.93
34742;BME280;20968;42.696;23.360;2023-07-08T09:48:34;95540.03;;;25.66;51.01
34742;BME280;20968;42.696;23.360;2023-07-08T09:51:01;95525.34;;;25.67;51.72
34742;BME280;20968;42.696;23.360;2023-07-08T09:53:27;95531.47;;;25.96;50.85
34742;BME280;20968;42.696;23.360;2023-07-08T09:55:54;95538.44;;;25.95;50.52
34742;BME280;20968;42.696;23.360;2023-07-08T09:58:32;95531.63;;;26.05;49.73
34742;BME280;20968;42.696;23.360;2023-07-08T10:01:08;95531.75;;;26.14;49.98
34742;BME280;20968;42.696;23.360;2023-07-08T10:03:35;95535.22;;;25.98;49.77
34742;BME280;20968;42.696;23.360;2023-07-08T10:06:21;95529.50;;;26.13;50.10
34742;BME280;20968;42.696;23.360;2023-07-08T10:08:47;95532.59;;;26.00;49.72
34742;BME280;20968;42.696;23.360;2023-07-08T10:11:37;95534.06;;;26.01;49.32
34742;BME280;20968;42.696;23.360;2023-07-08T10:14:20;95533.19;;;25.91;48.72
34742;BME280;20968;42.696;23.360;2023-07-08T10:16:48;95524.91;;;25.93;50.12
34742;BME280;20968;42.696;23.360;2023-07-08T10:19:16;95522.44;;;25.97;49.35
34742;BME280;20968;42.696;23.360;2023-07-08T10:21:54;95518.59;;;26.09;49.53
34742;BME280;20968;42.696;23.360;2023-07-08T10:27:24;95508.13;;;26.34;49.65
34742;BME280;20968;42.696;23.360;2023-07-08T10:35:18;95512.50;;;26.60;47.15
34742;BME280;20968;42.696;23.360;2023-07-08T10:40:35;95514.84;;;26.71;47.51
34742;BME280;20968;42.696;23.360;2023-07-08T10:56:55;95487.84;;;27.01;46.71
34742;BME280;20968;42.696;23.360;2023-07-08T10:59:46;95478.91;;;26.88;46.16
34742;BME280;20968;42.696;23.360;2023-07-08T11:08:24;95479.22;;;27.16;45.32
34742;BME280;20968;42.696;23.360;2023-07-08T11:11:09;95481.75;;;27.46;45.21
34742;BME280;20968;42.696;23.360;2023-07-08T11:13:42;95477.81;;;27.42;44.97
34742;BME280;20968;42.696;23.360;2023-07-08T11:16:17;95473.59;;;27.50;45.15
34742;BME280;20968;42.696;23.360;2023-07-08T11:19:26;95482.50;;;27.47;45.55
34742;BME280;20968;42.696;23.360;2023-07-08T11:21:52;95455.94;;;27.59;45.21
34742;BME280;20968;42.696;23.360;2023-07-08T11:25:04;95455.00;;;27.56;44.07
34742;BME280;20968;42.696;23.360;2023-07-08T11:27:29;95459.09;;;27.80;43.43
34742;BME280;20968;42.696;23.360;2023-07-08T11:32:31;95456.50;;;27.57;44.48
34742;BME280;20968;42.696;23.360;2023-07-08T11:34:59;95466.75;;;27.53;43.54
34742;BME280;20968;42.696;23.360;2023-07-08T11:37:26;95455.28;;;27.34;44.52
34742;BME280;20968;42.696;23.360;2023-07-08T11:40:00;95455.69;;;27.48;44.56
34742;BME280;20968;42.696;23.360;2023-07-08T11:42:47;95456.38;;;27.56;44.68
34742;BME280;20968;42.696;23.360;2023-07-08T11:45:34;95459.00;;;27.87;44.03
34742;BME280;20968;42.696;23.360;2023-07-08T11:48:16;95462.84;;;27.82;44.08
34742;BME280;20968;42.696;23.360;2023-07-08T11:50:45;95473.28;;;27.80;43.69
34742;BME280;20968;42.696;23.360;2023-07-08T11:58:31;95464.69;;;27.54;43.53
34742;BME280;20968;42.696;23.360;2023-07-08T12:03:34;95458.22;;;28.21;42.66
34742;BME280;20968;42.696;23.360;2023-07-08T12:06:00;95470.19;;;27.68;42.83
34742;BME280;20968;42.696;23.360;2023-07-08T12:08:36;95474.25;;;27.41;43.70
34742;BME280;20968;42.696;23.360;2023-07-08T12:11:10;95469.19;;;27.23;44.99
34742;BME280;20968;42.696;23.360;2023-07-08T12:13:37;95466.94;;;27.21;44.79
34742;BME280;20968;42.696;23.360;2023-07-08T12:16:09;95455.19;;;27.08;44.79
34742;BME280;20968;42.696;23.360;2023-07-08T12:18:38;95452.69;;;26.87;45.51
34742;BME280;20968;42.696;23.360;2023-07-08T12:21:11;95456.19;;;27.20;44.59
34742;BME280;20968;42.696;23.360;2023-07-08T12:23:43;95470.59;;;27.31;44.23
34742;BME280;20968;42.696;23.360;2023-07-08T12:26:08;95453.91;;;27.01;44.66
34742;BME280;20968;42.696;23.360;2023-07-08T12:28:36;95448.91;;;26.68;45.27
34742;BME280;20968;42.696;23.360;2023-07-08T12:31:02;95439.56;;;26.58;45.46
34742;BME280;20968;42.696;23.360;2023-07-08T12:33:30;95439.41;;;26.97;44.17
34742;BME280;20968;42.696;23.360;2023-07-08T12:35:59;95445.19;;;27.07;44.81
34742;BME280;20968;42.696;23.360;2023-07-08T12:38:32;95428.66;;;27.37;44.35
34742;BME280;20968;42.696;23.360;2023-07-08T12:41:01;95439.31;;;27.63;44.48
34742;BME280;20968;42.696;23.360;2023-07-08T12:43:27;95445.88;;;27.65;45.24
34742;BME280;20968;42.696;23.360;2023-07-08T12:45:52;95446.28;;;27.79;43.44
34742;BME280;20968;42.696;23.360;2023-07-08T12:48:18;95444.41;;;27.91;43.60
34742;BME280;20968;42.696;23.360;2023-07-08T12:50:43;95442.50;;;27.93;42.59
34742;BME280;20968;42.696;23.360;2023-07-08T12:53:12;95444.91;;;27.97;42.77
34742;BME280;20968;42.696;23.360;2023-07-08T12:55:40;95437.63;;;28.03;42.86
34742;BME280;20968;42.696;23.360;2023-07-08T12:58:13;95432.59;;;28.11;43.05
34742;BME280;20968;42.696;23.360;2023-07-08T13:00:40;95444.13;;;28.13;43.29
34742;BME280;20968;42.696;23.360;2023-07-08T13:03:15;95433.81;;;28.08;43.00
34742;BME280;20968;42.696;23.360;2023-07-08T13:05:42;95453.59;;;28.25;42.45
34742;BME280;20968;42.696;23.360;2023-07-08T13:08:12;95438.44;;;28.30;42.45
34742;BME280;20968;42.696;23.360;2023-07-08T13:10:39;95458.28;;;28.13;42.30
34742;BME280;20968;42.696;23.360;2023-07-08T13:13:11;95445.34;;;28.20;43.10
34742;BME280;20968;42.696;23.360;2023-07-08T13:15:40;95442.69;;;28.22;42.65
34742;BME280;20968;42.696;23.360;2023-07-08T13:20:40;95450.06;;;28.34;41.43
34742;BME280;20968;42.696;23.360;2023-07-08T13:23:08;95449.59;;;28.28;42.05
34742;BME280;20968;42.696;23.360;2023-07-08T13:25:37;95443.69;;;28.17;41.86
34742;BME280;20968;42.696;23.360;2023-07-08T13:28:19;95465.75;;;28.18;42.21
34742;BME280;20968;42.696;23.360;2023-07-08T13:30:59;95450.22;;;28.10;42.23
34742;BME280;20968;42.696;23.360;2023-07-08T13:33:33;95440.19;;;27.82;43.01
34742;BME280;20968;42.696;23.360;2023-07-08T13:36:02;95439.03;;;27.52;43.70
34742;BME280;20968;42.696;23.360;2023-07-08T13:38:33;95441.88;;;27.18;44.14
34742;BME280;20968;42.696;23.360;2023-07-08T13:41:02;95440.81;;;26.89;44.84
34742;BME280;20968;42.696;23.360;2023-07-08T13:43:32;95439.66;;;26.92;45.17
34742;BME280;20968;42.696;23.360;2023-07-08T13:45:58;95441.22;;;26.85;45.35
34742;BME280;20968;42.696;23.360;2023-07-08T13:48:43;95442.22;;;26.80;46.09
34742;BME280;20968;42.696;23.360;2023-07-08T13:51:15;95438.22;;;27.08;44.68
34742;BME280;20968;42.696;23.360;2023-07-08T13:53:49;95436.22;;;27.35;44.16
34742;BME280;20968;42.696;23.360;2023-07-08T13:58:51;95435.47;;;27.17;45.52
34742;BME280;20968;42.696;23.360;2023-07-08T14:01:22;95432.31;;;27.13;45.50
34742;BME280;20968;42.696;23.360;2023-07-08T14:03:48;95438.78;;;27.40;43.80